createdAt,value
2017-06-23T14:16:47.615Z,27.07
2017-06-23T14:18:09.933Z,27.28
2017-06-23T14:19:31.206Z,27.22
2017-06-23T14:20:53.726Z,27.18
2017-06-23T14:22:16.456Z,27.27
2017-06-23T14:23:38.653Z,27.21
2017-06-23T14:25:00.489Z,26.67
2017-06-23T14:26:22.391Z,26.32
2017-06-23T14:27:44.874Z,25.95
2017-06-23T14:29:06.790Z,25.95
2017-06-23T14:30:29.350Z,26.05
2017-06-23T14:31:51.650Z,26.12
2017-06-23T14:33:14.429Z,26.39
2017-06-23T14:34:36.932Z,26.48
2017-06-23T14:35:58.788Z,26.48
2017-06-23T14:37:20.951Z,26.48
2017-06-23T14:38:43.451Z,26.45
2017-06-23T14:40:05.916Z,26.32
2017-06-23T14:41:27.445Z,26.36
2017-06-23T14:42:49.273Z,26.35
2017-06-23T14:44:11.456Z,26.23
2017-06-23T14:45:33.679Z,26.02
2017-06-23T14:46:55.867Z,25.94
2017-06-23T14:48:18.041Z,25.87
2017-06-23T14:49:40.540Z,25.99
2017-06-23T14:51:02.398Z,26.12
2017-06-23T14:52:24.380Z,26.4
2017-06-23T14:53:46.645Z,26.54
2017-06-23T14:55:09.452Z,26.73
2017-06-23T14:56:31.089Z,26.66
2017-06-23T14:57:53.342Z,26.51
2017-06-23T14:59:15.951Z,26.37
2017-06-23T15:00:38.426Z,26.26
2017-06-23T15:02:00.805Z,26.06
2017-06-23T15:03:23.406Z,25.91
2017-06-23T15:04:45.886Z,25.97
2017-06-23T15:06:08.660Z,25.83
2017-06-23T15:07:31.125Z,25.7
2017-06-23T15:08:53.086Z,25.72
2017-06-23T15:10:14.761Z,25.58
2017-06-23T15:11:37.522Z,25.35
2017-06-23T15:12:59.996Z,25.17
2017-06-23T15:14:22.619Z,25.18
2017-06-23T15:15:45.092Z,25.2
2017-06-23T15:17:07.516Z,25.2
2017-06-23T15:18:29.732Z,25.2
2017-06-23T15:19:51.914Z,25.13
2017-06-23T15:21:14.401Z,24.98
2017-06-23T15:22:36.926Z,24.88
2017-06-23T15:23:59.081Z,24.78
2017-06-23T15:25:21.223Z,24.8
2017-06-23T15:26:43.467Z,24.6
2017-06-23T15:28:06.491Z,24.5
2017-06-23T15:29:27.997Z,24.31
2017-06-23T15:30:50.180Z,24.37
2017-06-23T15:32:12.389Z,24.43
2017-06-23T15:33:34.841Z,24.35
2017-06-23T15:34:56.354Z,24.32
2017-06-23T15:36:18.517Z,24.35
2017-06-23T15:37:40.640Z,24.34
2017-06-23T15:39:03.471Z,24.34
2017-06-23T15:40:25.996Z,24.22
2017-06-23T15:41:47.582Z,24.21
2017-06-23T15:43:09.127Z,24.3
2017-06-23T15:44:31.759Z,24.37
2017-06-23T15:45:53.676Z,24.37
2017-06-23T15:47:16.185Z,24.37
2017-06-23T15:48:38.031Z,24.4
2017-06-23T15:50:00.173Z,24.58
2017-06-23T15:51:22.335Z,24.43
2017-06-23T15:52:44.832Z,24.4
2017-06-23T15:54:07.380Z,24.37
2017-06-23T15:55:30.202Z,24.37
2017-06-23T15:56:52.112Z,24.5
2017-06-23T15:58:14.594Z,24.5
2017-06-23T15:59:36.180Z,24.5
2017-06-23T16:00:58.239Z,24.49
2017-06-23T16:02:20.742Z,24.25
2017-06-23T16:03:42.918Z,24
2017-06-23T16:05:04.753Z,23.8
2017-06-23T16:06:27.311Z,23.7
2017-06-23T16:07:49.461Z,23.54
2017-06-23T16:09:11.698Z,23.53
2017-06-23T16:10:33.846Z,23.54
2017-06-23T16:11:55.923Z,23.54
2017-06-23T16:13:17.769Z,23.54
2017-06-23T16:14:39.603Z,23.51
2017-06-23T16:16:02.050Z,23.39
2017-06-23T16:17:24.938Z,23.32
2017-06-23T16:18:46.767Z,23.31
2017-06-23T16:20:08.991Z,23.33
2017-06-23T16:21:31.138Z,23.31
2017-06-23T16:22:54.004Z,23.33
2017-06-23T16:24:16.159Z,23.33
2017-06-23T16:25:38.614Z,23.47
2017-06-23T16:27:01.108Z,23.48
2017-06-23T16:28:23.945Z,23.38
2017-06-23T16:29:46.443Z,23.22
2017-06-23T16:31:08.585Z,23.09
2017-06-23T16:32:31.104Z,22.94
2017-06-23T16:33:53.942Z,22.98
2017-06-23T16:35:16.404Z,22.92
2017-06-23T16:36:38.658Z,22.86
2017-06-23T16:38:00.881Z,22.83
2017-06-23T16:39:23.383Z,22.92
2017-06-23T16:40:45.991Z,22.97
2017-06-23T16:42:08.457Z,22.88
2017-06-23T16:43:30.907Z,22.86
2017-06-23T16:44:53.444Z,22.82
2017-06-23T16:46:15.908Z,22.85
2017-06-23T16:47:38.072Z,22.83
2017-06-23T16:49:00.280Z,22.94
2017-06-23T16:50:22.344Z,22.9
2017-06-23T16:51:44.191Z,22.92
2017-06-23T16:53:05.709Z,22.88
2017-06-23T16:54:27.548Z,22.91
2017-06-23T16:55:49.693Z,22.82
2017-06-23T16:57:12.240Z,22.64
2017-06-23T16:58:34.394Z,22.58
2017-06-23T16:59:56.674Z,22.51
2017-06-23T17:01:19.164Z,22.39
2017-06-23T17:02:41.419Z,22.45
2017-06-23T17:04:03.026Z,22.52
2017-06-23T17:05:24.873Z,22.6
2017-06-23T17:06:47.370Z,22.6
2017-06-23T17:08:09.825Z,22.61
2017-06-23T17:09:32.328Z,22.62
2017-06-23T17:10:54.273Z,22.55
2017-06-23T17:12:36.189Z,22.55
2017-06-23T17:13:58.003Z,22.49
2017-06-23T17:15:20.149Z,22.36
2017-06-23T17:16:42.379Z,22.33
2017-06-23T17:18:04.873Z,22.17
2017-06-23T17:19:27.106Z,22.17
2017-06-23T17:20:49.574Z,21.99
2017-06-23T17:22:11.823Z,22.05
2017-06-23T17:23:34.639Z,22.09
2017-06-23T17:24:56.829Z,22
2017-06-23T17:26:18.067Z,22.09
2017-06-23T17:27:40.536Z,22.1
2017-06-23T17:29:02.724Z,22.1
2017-06-23T17:30:25.187Z,22.09
2017-06-23T17:31:47.324Z,22.06
2017-06-23T17:33:09.454Z,22
2017-06-23T17:34:32.172Z,22.02
2017-06-23T17:35:54.303Z,21.92
2017-06-23T17:37:16.507Z,22
2017-06-23T17:38:38.424Z,22.15
2017-06-23T17:40:00.919Z,22.31
2017-06-23T17:41:23.186Z,22.18
2017-06-23T17:42:45.344Z,22.2
2017-06-23T17:44:06.855Z,22.06
2017-06-23T17:45:29.153Z,22.05
2017-06-23T17:46:51.359Z,21.91
2017-06-23T17:48:13.497Z,21.68
2017-06-23T17:49:36.054Z,21.61
2017-06-23T17:50:58.454Z,21.53
2017-06-23T17:52:20.930Z,21.44
2017-06-23T17:53:43.441Z,21.37
2017-06-23T17:55:05.578Z,21.34
2017-06-23T17:56:27.671Z,21.25
2017-06-23T17:57:50.173Z,21.25
2017-06-23T17:59:12.636Z,21.17
2017-06-23T18:00:34.492Z,21.17
2017-06-23T18:01:56.226Z,21.21
2017-06-23T18:03:17.824Z,21.13
2017-06-23T18:04:40.435Z,21.19
2017-06-23T18:06:02.795Z,21.1
2017-06-23T18:07:25.637Z,21.03
2017-06-23T18:08:48.107Z,21.07
2017-06-23T18:10:10.307Z,20.99
2017-06-23T18:11:32.506Z,21.04
2017-06-23T18:12:55.312Z,20.98
2017-06-23T18:14:16.967Z,20.91
2017-06-23T18:15:39.449Z,21.01
2017-06-23T18:17:02.048Z,20.8
2017-06-23T18:18:23.913Z,20.88
2017-06-23T18:19:46.450Z,20.88
2017-06-23T18:21:07.985Z,20.79
2017-06-23T18:22:30.495Z,20.79
2017-06-23T18:23:52.366Z,20.74
2017-06-23T18:25:14.254Z,20.77
2017-06-23T18:26:35.796Z,20.67
2017-06-23T18:27:57.646Z,20.59
2017-06-23T18:29:20.135Z,20.54
2017-06-23T18:30:42.319Z,20.5
2017-06-23T18:32:04.795Z,20.32
2017-06-23T18:33:26.870Z,20.21
2017-06-23T18:34:49.636Z,20.06
2017-06-23T18:36:12.134Z,20.03
2017-06-23T18:37:34.435Z,19.83
2017-06-23T18:38:56.634Z,19.73
2017-06-23T18:40:19.694Z,19.63
2017-06-23T18:41:41.562Z,19.59
2017-06-23T18:43:03.735Z,19.47
2017-06-23T18:44:26.220Z,19.36
2017-06-23T18:45:48.447Z,19.36
2017-06-23T18:47:10.434Z,19.31
2017-06-23T18:48:32.927Z,19.25
2017-06-23T18:49:55.590Z,19.33
2017-06-23T18:51:18.323Z,19.18
2017-06-23T18:52:40.807Z,19.16
2017-06-23T18:54:03.324Z,19.16
2017-06-23T18:55:25.516Z,19.07
2017-06-23T18:56:48.346Z,19.04
2017-06-23T18:58:10.593Z,18.9
2017-06-23T18:59:33.064Z,18.87
2017-06-23T19:00:55.313Z,18.72
2017-06-23T19:02:18.100Z,18.67
2017-06-23T19:03:40.287Z,18.58
2017-06-23T19:05:02.756Z,18.58
2017-06-23T19:06:24.714Z,18.5
2017-06-23T19:07:46.885Z,18.42
2017-06-23T19:09:09.468Z,18.3
2017-06-23T19:10:31.327Z,18.3
2017-06-23T19:11:53.509Z,18.26
2017-06-23T19:13:16.514Z,18.27
2017-06-23T19:14:39.007Z,18.36
2017-06-23T19:16:01.517Z,18.29
2017-06-23T19:17:23.738Z,18.26
2017-06-23T19:18:46.594Z,18.27
2017-06-23T19:20:09.092Z,18.21
2017-06-23T19:21:31.276Z,18.18
2017-06-23T19:22:53.809Z,18.21
2017-06-23T19:24:16.543Z,18.2
2017-06-23T19:25:38.487Z,18.25
2017-06-23T19:27:00.682Z,18.23
2017-06-23T19:28:23.261Z,18.15
2017-06-23T19:29:45.966Z,18.26
2017-06-23T19:31:08.463Z,18.14
2017-06-23T19:32:31.086Z,18.21
2017-06-23T19:33:53.237Z,18.18
2017-06-23T19:35:15.778Z,18.11
2017-06-23T19:36:38.251Z,18.23
2017-06-23T19:38:00.506Z,18.17
2017-06-23T19:39:23.002Z,18.2
2017-06-23T19:40:45.763Z,18.18
2017-06-23T19:42:08.249Z,18.17
2017-06-23T19:43:30.447Z,18.2
2017-06-23T19:44:52.717Z,18.23
2017-06-23T19:46:15.245Z,18.12
2017-06-23T19:47:37.766Z,18.12
2017-06-23T19:49:00.014Z,18.08
2017-06-23T19:50:22.497Z,18.15
2017-06-23T19:51:45.325Z,18.08
2017-06-23T19:53:07.324Z,18.03
2017-06-23T19:54:29.529Z,18.08
2017-06-23T19:55:52.065Z,18.12
2017-06-23T19:57:14.591Z,18.07
2017-06-23T19:58:36.548Z,17.93
2017-06-23T19:59:59.029Z,17.97
2017-06-23T20:01:21.286Z,17.92
2017-06-23T20:02:44.079Z,17.92
2017-06-23T20:04:06.381Z,17.99
2017-06-23T20:05:28.304Z,17.93
2017-06-23T20:06:49.887Z,17.95
2017-06-23T20:08:12.687Z,17.92
2017-06-23T20:09:35.175Z,17.82
2017-06-23T20:10:57.678Z,17.78
2017-06-23T20:12:20.152Z,17.7
2017-06-23T20:13:42.679Z,17.49
2017-06-23T20:15:04.858Z,17.46
2017-06-23T20:16:27.536Z,17.3
2017-06-23T20:17:50.013Z,17.34
2017-06-23T20:19:12.442Z,17.33
2017-06-23T20:20:34.967Z,17.41
2017-06-23T20:21:57.122Z,17.28
2017-06-23T20:23:18.676Z,17.31
2017-06-23T20:24:41.205Z,17.33
2017-06-23T20:26:03.721Z,17.31
2017-06-23T20:27:26.385Z,17.4
2017-06-23T20:28:48.862Z,17.51
2017-06-23T20:30:11.322Z,17.51
2017-06-23T20:31:33.165Z,17.41
2017-06-23T20:32:55.021Z,17.46
2017-06-23T20:34:16.557Z,17.44
2017-06-23T20:35:39.305Z,17.48
2017-06-23T20:37:01.467Z,17.31
2017-06-23T20:38:24.028Z,17.28
2017-06-23T20:39:45.874Z,17.21
2017-06-23T20:41:08.399Z,17.07
2017-06-23T20:42:30.585Z,17.07
2017-06-23T20:43:52.837Z,17.06
2017-06-23T20:45:15.068Z,17.11
2017-06-23T20:46:37.327Z,17.14
2017-06-23T20:47:59.507Z,17.15
2017-06-23T20:49:21.786Z,17.01
2017-06-23T20:50:43.956Z,17.06
2017-06-23T20:52:06.433Z,17.12
2017-06-23T20:53:28.647Z,17.03
2017-06-23T20:54:50.485Z,17.08
2017-06-23T20:56:12.686Z,17.12
2017-06-23T20:57:35.108Z,17.12
2017-06-23T20:58:57.262Z,17.12
2017-06-23T21:00:19.791Z,17.18
2017-06-23T21:01:41.968Z,17.21
2017-06-23T21:03:04.096Z,17.21
2017-06-23T21:04:26.590Z,17.19
2017-06-23T21:05:49.166Z,17.22
2017-06-23T21:07:11.092Z,17.28
2017-06-23T21:08:32.918Z,17.3
2017-06-23T21:09:55.454Z,17.28
2017-06-23T21:11:17.601Z,17.28
2017-06-23T21:12:40.086Z,17.22
2017-06-23T21:14:02.482Z,17.23
2017-06-23T21:15:24.489Z,17.16
2017-06-23T21:16:46.345Z,17.07
2017-06-23T21:18:08.810Z,17.06
2017-06-23T21:19:31.528Z,17
2017-06-23T21:20:53.683Z,16.98
2017-06-23T21:22:16.098Z,16.85
2017-06-23T21:23:38.279Z,16.88
2017-06-23T21:25:01.136Z,16.85
2017-06-23T21:26:23.554Z,16.82
2017-06-23T21:27:45.687Z,16.73
2017-06-23T21:29:08.178Z,16.81
2017-06-23T21:30:30.724Z,16.79
2017-06-23T21:31:52.846Z,16.67
2017-06-23T21:33:15.353Z,16.67
2017-06-23T21:34:37.503Z,16.66
2017-06-23T21:35:59.749Z,16.68
2017-06-23T21:37:21.617Z,16.75
2017-06-23T21:38:43.157Z,16.63
2017-06-23T21:40:05.695Z,16.68
2017-06-23T21:41:28.116Z,16.66
2017-06-23T21:42:50.645Z,16.67
2017-06-23T21:44:12.814Z,16.68
2017-06-23T21:45:35.029Z,16.64
2017-06-23T21:46:57.755Z,16.71
2017-06-23T21:48:20.207Z,16.78
2017-06-23T21:49:42.661Z,16.63
2017-06-23T21:51:04.805Z,16.73
2017-06-23T21:52:27.507Z,16.63
2017-06-23T21:53:49.628Z,16.67
2017-06-23T21:55:11.494Z,16.61
2017-06-23T21:56:33.626Z,16.64
2017-06-23T21:57:56.065Z,16.56
2017-06-23T21:59:17.623Z,16.52
2017-06-23T22:00:40.204Z,16.57
2017-06-23T22:02:02.347Z,16.56
2017-06-23T22:03:25.074Z,16.53
2017-06-23T22:04:46.918Z,16.49
2017-06-23T22:06:09.377Z,16.52
2017-06-23T22:07:31.586Z,16.48
2017-06-23T22:08:54.341Z,16.57
2017-06-23T22:10:16.805Z,16.57
2017-06-23T22:11:38.706Z,16.57
2017-06-23T22:13:01.003Z,16.58
2017-06-23T22:14:23.385Z,16.61
2017-06-23T22:15:45.244Z,16.58
2017-06-23T22:17:07.383Z,16.58
2017-06-23T22:18:29.234Z,16.67
2017-06-23T22:19:51.003Z,16.67
2017-06-23T22:21:13.313Z,16.68
2017-06-23T22:22:35.225Z,16.79
2017-06-23T22:23:57.445Z,16.64
2017-06-23T22:25:20.015Z,16.79
2017-06-23T22:26:42.159Z,16.68
2017-06-23T22:28:04.638Z,16.68
2017-06-23T22:29:26.484Z,16.67
2017-06-23T22:30:48.942Z,16.71
2017-06-23T22:32:11.096Z,16.73
2017-06-23T22:33:33.228Z,16.71
2017-06-23T22:34:54.766Z,16.64
2017-06-23T22:36:17.171Z,16.76
2017-06-23T22:37:39.431Z,16.85
2017-06-23T22:39:01.577Z,16.7
2017-06-23T22:40:23.820Z,16.81
2017-06-23T22:41:46.234Z,16.85
2017-06-23T22:43:08.680Z,16.79
2017-06-23T22:44:30.926Z,16.79
2017-06-23T22:45:53.075Z,16.73
2017-06-23T22:47:15.004Z,16.76
2017-06-23T22:48:37.216Z,16.76
2017-06-23T22:49:59.360Z,16.73
2017-06-23T22:51:21.544Z,16.79
2017-06-23T22:52:43.657Z,16.78
2017-06-23T22:54:05.809Z,16.76
2017-06-23T22:55:27.942Z,16.83
2017-06-23T22:56:50.110Z,16.82
2017-06-23T22:58:12.222Z,16.82
2017-06-23T22:59:33.411Z,16.85
2017-06-23T23:00:55.634Z,16.76
2017-06-23T23:02:17.133Z,16.83
2017-06-23T23:03:39.588Z,16.79
2017-06-23T23:05:01.893Z,16.81
2017-06-23T23:06:24.013Z,16.85
2017-06-23T23:07:46.159Z,16.85
2017-06-23T23:09:07.706Z,16.85
2017-06-23T23:10:29.841Z,16.91
2017-06-23T23:11:52.273Z,16.93
2017-06-23T23:13:14.317Z,16.83
2017-06-23T23:14:36.773Z,16.94
2017-06-23T23:15:59.243Z,16.98
2017-06-23T23:17:21.063Z,16.93
2017-06-23T23:18:43.183Z,16.97
2017-06-23T23:20:05.982Z,16.94
2017-06-23T23:21:28.172Z,16.94
2017-06-23T23:22:49.652Z,16.98
2017-06-23T23:24:11.473Z,17
2017-06-23T23:25:33.589Z,17
2017-06-23T23:26:55.448Z,16.96
2017-06-23T23:28:17.889Z,16.96
2017-06-23T23:29:39.674Z,16.94
2017-06-23T23:31:02.151Z,17.01
2017-06-23T23:32:24.582Z,16.96
2017-06-23T23:33:47.075Z,16.98
2017-06-23T23:35:09.012Z,17.01
2017-06-23T23:36:31.442Z,16.98
2017-06-23T23:37:53.349Z,17.04
2017-06-23T23:39:15.176Z,17
2017-06-23T23:40:37.322Z,17
2017-06-23T23:41:59.722Z,17.07
2017-06-23T23:43:22.181Z,17.04
2017-06-23T23:44:44.085Z,17.03
2017-06-23T23:46:05.622Z,17.04
2017-06-23T23:47:27.464Z,17.06
2017-06-23T23:48:49.583Z,17.12
2017-06-23T23:50:11.549Z,17.11
2017-06-23T23:51:33.975Z,16.96
2017-06-23T23:52:56.945Z,17.03
2017-06-23T23:54:18.114Z,17
2017-06-23T23:55:39.702Z,17
2017-06-23T23:57:01.833Z,17.07
2017-06-23T23:58:24.735Z,17.11
2017-06-23T23:59:46.842Z,17.04
